Time;durP1;ratioP1;P1;durP2;ratioP2;P2;SDS_P1;SDS_P2;PMS_P1;PMS_P2;Temp;Humidity;BMP_temperature;BMP_pressure;BME280_temperature;BME280_humidity;BME280_pressure;Samples;Min_cycle;Max_cycle;Signal;HPM_P1;HPM_P2
2024/01/04 00:01:23;;;;;;;;;;;19.40;47.00;;;;;;5056447;28;19965;-54
2024/01/04 00:03:50;;;;;;;;;;;19.40;47.60;;;;;;5070729;28;19981;-55
2024/01/04 00:06:20;;;;;;;;;;;19.40;47.00;;;;;;5067071;28;19927;-52
2024/01/04 00:08:47;;;;;;;;;;;19.40;47.00;;;;;;5063579;28;19920;-57
2024/01/04 00:11:14;;;;;;;;;;;19.40;47.00;;;;;;5070704;28;19928;-53
2024/01/04 00:13:41;;;;;;;;;;;19.40;47.00;;;;;;5072897;28;20382;-53
2024/01/04 00:16:11;;;;;;;;;;;19.40;47.00;;;;;;5090986;28;19920;-55
2024/01/04 00:18:38;;;;;;;;;;;19.40;47.00;;;;;;5070722;28;20020;-54
2024/01/04 00:21:05;;;;;;;;;;;19.40;47.00;;;;;;5091126;28;19978;-55
2024/01/04 00:23:34;;;;;;;;;;;19.40;47.00;;;;;;5093174;28;20022;-54
2024/01/04 00:26:00;;;;;;;;;;;19.40;47.00;;;;;;5070807;28;19920;-52
2024/01/04 00:28:40;;;;;;;;;;;19.40;47.00;;;;;;5093467;28;19967;-51
2024/01/04 00:31:07;;;;;;;;;;;19.40;47.00;;;;;;5071032;28;19920;-55
2024/01/04 00:33:34;;;;;;;;;;;19.40;47.10;;;;;;5093402;28;19932;-56
2024/01/04 00:36:01;;;;;;;;;;;19.40;47.10;;;;;;5072168;28;20354;-53
2024/01/04 00:38:30;;;;;;;;;;;19.40;47.00;;;;;;5072551;28;19924;-55
2024/01/04 00:40:59;;;;;;;;;;;19.40;47.00;;;;;;5094962;28;20015;-55
2024/01/04 00:43:26;;;;;;;;;;;19.40;47.00;;;;;;5091293;28;19920;-57
2024/01/04 00:45:52;;;;;;;;;;;19.40;47.10;;;;;;5076088;28;20015;-55
2024/01/04 00:48:22;;;;;;;;;;;19.40;47.10;;;;;;5069847;28;19920;-51
2024/01/04 00:50:49;;;;;;;;;;;19.40;47.10;;;;;;5092684;28;20038;-53
2024/01/04 00:53:19;;;;;;;;;;;19.40;47.10;;;;;;5093954;28;19945;-52
2024/01/04 00:55:47;;;;;;;;;;;19.40;47.00;;;;;;5076257;28;19955;-49
2024/01/04 00:58:17;;;;;;;;;;;19.40;47.00;;;;;;5051170;28;19927;-52
2024/01/04 01:00:44;;;;;;;;;;;19.40;47.10;;;;;;5076149;28;19975;-51
2024/01/04 01:03:12;;;;;;;;;;;19.40;47.10;;;;;;5074718;28;19920;-51
2024/01/04 01:05:38;;;;;;;;;;;19.40;47.10;;;;;;5093350;28;19991;-56
2024/01/04 01:08:06;;;;;;;;;;;19.40;47.10;;;;;;5094139;28;20369;-53
2024/01/04 01:10:34;;;;;;;;;;;19.40;47.10;;;;;;5075096;28;19978;-54
2024/01/04 01:13:01;;;;;;;;;;;19.40;47.10;;;;;;5071457;28;19920;-55
2024/01/04 01:15:29;;;;;;;;;;;19.40;47.10;;;;;;5071965;28;19920;-54
2024/01/04 01:17:56;;;;;;;;;;;19.40;47.10;;;;;;5075977;28;19973;-50
2024/01/04 01:20:23;;;;;;;;;;;19.40;47.10;;;;;;5074948;28;19920;-55
2024/01/04 01:22:51;;;;;;;;;;;19.40;47.10;;;;;;5092005;28;20952;-53
2024/01/04 01:25:18;;;;;;;;;;;19.40;47.10;;;;;;5089522;28;19927;-53
2024/01/04 01:27:45;;;;;;;;;;;19.40;47.10;;;;;;5093659;28;19924;-50
2024/01/04 01:30:13;;;;;;;;;;;19.40;47.10;;;;;;5073720;28;19927;-52
2024/01/04 01:32:42;;;;;;;;;;;19.40;47.10;;;;;;5075142;28;19928;-53
2024/01/04 01:35:09;;;;;;;;;;;19.40;47.10;;;;;;5075437;28;19965;-56
2024/01/04 01:37:37;;;;;;;;;;;19.40;47.70;;;;;;5075911;28;19920;-51
2024/01/04 01:40:04;;;;;;;;;;;19.40;47.10;;;;;;5090843;28;19958;-52
2024/01/04 01:42:31;;;;;;;;;;;19.40;47.10;;;;;;5090359;28;19928;-57
2024/01/04 01:44:59;;;;;;;;;;;19.40;47.10;;;;;;5074862;28;20368;-55
2024/01/04 01:47:26;;;;;;;;;;;19.40;47.10;;;;;;5075009;28;19920;-50
2024/01/04 01:49:54;;;;;;;;;;;19.40;47.10;;;;;;5092316;28;19978;-55
2024/01/04 01:52:21;;;;;;;;;;;19.40;47.10;;;;;;5058678;28;19920;-54
2024/01/04 01:54:50;;;;;;;;;;;19.40;47.10;;;;;;5075314;28;20365;-54
2024/01/04 01:57:17;;;;;;;;;;;19.40;47.10;;;;;;5092172;28;19931;-54
2024/01/04 01:59:44;;;;;;;;;;;19.40;47.10;;;;;;5087612;28;20345;-52
2024/01/04 02:02:12;;;;;;;;;;;19.40;47.10;;;;;;5088253;28;19920;-56
2024/01/04 02:04:38;;;;;;;;;;;19.40;47.10;;;;;;5092668;28;19920;-55
2024/01/04 02:07:07;;;;;;;;;;;19.40;47.10;;;;;;5074397;28;19989;-53
2024/01/04 02:09:34;;;;;;;;;;;19.40;47.10;;;;;;5075254;28;19927;-54
2024/01/04 02:12:07;;;;;;;;;;;19.40;47.10;;;;;;5075046;28;19920;-55
2024/01/04 02:14:35;;;;;;;;;;;19.40;47.10;;;;;;5070178;28;19920;-54
2024/01/04 02:17:05;;;;;;;;;;;19.40;47.10;;;;;;5093279;28;19920;-54
2024/01/04 02:19:32;;;;;;;;;;;19.40;47.00;;;;;;5072339;28;19926;-54
2024/01/04 02:21:59;;;;;;;;;;;19.40;47.00;;;;;;5072574;28;19927;-54
2024/01/04 02:24:29;;;;;;;;;;;19.40;47.00;;;;;;5091803;28;19927;-56
2024/01/04 02:26:56;;;;;;;;;;;19.40;47.10;;;;;;5082270;28;19989;-55
2024/01/04 02:29:23;;;;;;;;;;;19.40;47.00;;;;;;5092649;28;19927;-54
2024/01/04 02:31:50;;;;;;;;;;;19.40;47.00;;;;;;5071851;28;20018;-54
2024/01/04 02:34:17;;;;;;;;;;;19.40;47.00;;;;;;5085538;28;19920;-52
2024/01/04 02:36:44;;;;;;;;;;;19.40;47.00;;;;;;5068819;28;20398;-54
2024/01/04 02:39:11;;;;;;;;;;;19.40;47.00;;;;;;5087131;28;19924;-55
2024/01/04 02:41:42;;;;;;;;;;;19.40;47.00;;;;;;5074461;28;19969;-54
2024/01/04 02:44:10;;;;;;;;;;;19.40;47.00;;;;;;5068582;28;19920;-54
2024/01/04 02:46:37;;;;;;;;;;;19.40;47.00;;;;;;5091636;28;20015;-55
2024/01/04 02:49:04;;;;;;;;;;;19.40;47.00;;;;;;5074572;28;19965;-51
2024/01/04 02:51:30;;;;;;;;;;;19.40;47.00;;;;;;5073039;28;20254;-55
2024/01/04 02:53:59;;;;;;;;;;;19.40;47.00;;;;;;5087898;28;19920;-54
2024/01/04 02:56:31;;;;;;;;;;;19.40;47.00;;;;;;5090888;28;19931;-56
2024/01/04 02:59:01;;;;;;;;;;;19.40;47.00;;;;;;5091321;28;19920;-54
2024/01/04 03:01:30;;;;;;;;;;;19.40;47.00;;;;;;5091952;28;19920;-57
2024/01/04 03:03:57;;;;;;;;;;;19.40;47.00;;;;;;5074203;28;19985;-55
2024/01/04 03:06:24;;;;;;;;;;;19.40;47.00;;;;;;5073079;28;19927;-50
2024/01/04 03:08:50;;;;;;;;;;;19.40;47.00;;;;;;5090635;28;19932;-55
2024/01/04 03:11:17;;;;;;;;;;;19.40;47.00;;;;;;5084571;28;19924;-56
2024/01/04 03:13:46;;;;;;;;;;;19.40;47.00;;;;;;5072292;28;19920;-56
2024/01/04 03:16:15;;;;;;;;;;;19.40;47.00;;;;;;5091252;28;19928;-54
2024/01/04 03:18:43;;;;;;;;;;;19.40;47.00;;;;;;5073695;28;19927;-54
2024/01/04 03:21:10;;;;;;;;;;;19.40;46.90;;;;;;5073157;28;19942;-54
2024/01/04 03:23:37;;;;;;;;;;;19.40;46.90;;;;;;5055668;28;19924;-54
2024/01/04 03:26:04;;;;;;;;;;;19.40;46.90;;;;;;5073748;28;20009;-54
2024/01/04 03:28:31;;;;;;;;;;;19.40;46.90;;;;;;5087999;28;19924;-55
2024/01/04 03:30:58;;;;;;;;;;;19.40;46.90;;;;;;5091005;28;19928;-54
2024/01/04 03:33:29;;;;;;;;;;;19.40;46.90;;;;;;5073047;28;19927;-56
2024/01/04 03:35:55;;;;;;;;;;;19.40;46.90;;;;;;5064790;28;19924;-53
2024/01/04 03:38:22;;;;;;;;;;;19.40;46.90;;;;;;5073363;28;20445;-54
2024/01/04 03:40:50;;;;;;;;;;;19.40;46.90;;;;;;5091155;28;19920;-53
2024/01/04 03:43:17;;;;;;;;;;;19.40;46.90;;;;;;5073499;28;19927;-57
2024/01/04 03:45:44;;;;;;;;;;;19.40;46.90;;;;;;5070970;28;19927;-55
2024/01/04 03:48:12;;;;;;;;;;;19.40;47.50;;;;;;5090515;28;19920;-55
2024/01/04 03:50:46;;;;;;;;;;;19.40;46.90;;;;;;5089789;28;19923;-56
2024/01/04 03:53:13;;;;;;;;;;;19.40;46.90;;;;;;5073351;28;19920;-55
2024/01/04 03:55:40;;;;;;;;;;;19.40;46.90;;;;;;5071521;28;19939;-55
2024/01/04 03:58:07;;;;;;;;;;;19.40;46.80;;;;;;5090221;28;20140;-56
2024/01/04 04:00:35;;;;;;;;;;;19.40;46.80;;;;;;5091057;28;20033;-52
2024/01/04 04:03:02;;;;;;;;;;;19.40;46.80;;;;;;5086718;28;19927;-54
2024/01/04 04:05:29;;;;;;;;;;;19.40;47.40;;;;;;5087244;28;19931;-54
2024/01/04 04:07:57;;;;;;;;;;;19.40;46.80;;;;;;5065172;28;19927;-54
2024/01/04 04:10:24;;;;;;;;;;;19.40;46.80;;;;;;5072411;28;19925;-54
2024/01/04 04:12:51;;;;;;;;;;;19.40;46.80;;;;;;5090917;28;19928;-51
2024/01/04 04:15:18;;;;;;;;;;;19.40;46.80;;;;;;5086707;28;19928;-55
2024/01/04 04:17:47;;;;;;;;;;;19.40;46.80;;;;;;5089825;28;20163;-55
2024/01/04 04:20:16;;;;;;;;;;;19.40;46.70;;;;;;5050120;28;19933;-52
2024/01/04 04:22:45;;;;;;;;;;;19.40;46.70;;;;;;5066444;28;19927;-56
2024/01/04 04:25:14;;;;;;;;;;;19.40;46.70;;;;;;5071905;28;19928;-53
2024/01/04 04:27:41;;;;;;;;;;;19.40;46.70;;;;;;5089357;28;19969;-57
2024/01/04 04:30:10;;;;;;;;;;;19.40;46.70;;;;;;5070106;28;19920;-54
2024/01/04 04:32:37;;;;;;;;;;;19.40;46.70;;;;;;5053809;28;20006;-51
2024/01/04 04:35:06;;;;;;;;;;;19.40;46.70;;;;;;5073129;28;19946;-51
2024/01/04 04:37:34;;;;;;;;;;;19.40;46.70;;;;;;5070630;28;19920;-55
2024/01/04 04:40:01;;;;;;;;;;;19.40;46.70;;;;;;5089259;28;19920;-55
2024/01/04 04:42:30;;;;;;;;;;;19.40;46.70;;;;;;5090531;28;19924;-53
2024/01/04 04:44:59;;;;;;;;;;;19.40;46.70;;;;;;5072817;28;19969;-53
2024/01/04 04:47:26;;;;;;;;;;;19.40;46.70;;;;;;5072952;28;19926;-55
2024/01/04 04:49:53;;;;;;;;;;;19.40;46.70;;;;;;5072053;28;19926;-56
2024/01/04 04:52:22;;;;;;;;;;;19.40;46.70;;;;;;5071088;28;19927;-56
2024/01/04 04:54:56;;;;;;;;;;;19.40;46.70;;;;;;5090612;28;19920;-52
2024/01/04 04:57:23;;;;;;;;;;;19.40;46.60;;;;;;5087875;28;19920;-55
2024/01/04 04:59:52;;;;;;;;;;;19.40;46.70;;;;;;5064440;28;20077;-52
2024/01/04 05:02:19;;;;;;;;;;;19.40;46.70;;;;;;5082649;28;19920;-54
2024/01/04 05:04:46;;;;;;;;;;;19.40;46.70;;;;;;5068266;28;19928;-51
2024/01/04 05:07:16;;;;;;;;;;;19.40;46.70;;;;;;5090980;28;19924;-55
2024/01/04 05:09:42;;;;;;;;;;;19.40;46.70;;;;;;5092210;28;19934;-54
2024/01/04 05:12:09;;;;;;;;;;;19.40;46.70;;;;;;5092565;28;20384;-55
2024/01/04 05:14:36;;;;;;;;;;;19.40;46.70;;;;;;5075075;28;19927;-55
2024/01/04 05:17:05;;;;;;;;;;;19.40;46.60;;;;;;5092164;28;20012;-58
2024/01/04 05:19:33;;;;;;;;;;;19.40;46.60;;;;;;5059663;28;20036;-53
2024/01/04 05:22:03;;;;;;;;;;;19.40;46.70;;;;;;5089610;28;20132;-50
2024/01/04 05:24:30;;;;;;;;;;;19.40;46.70;;;;;;5076283;28;19942;-55
2024/01/04 05:26:57;;;;;;;;;;;19.40;46.60;;;;;;5058225;28;19927;-56
2024/01/04 05:29:25;;;;;;;;;;;19.40;46.60;;;;;;5092088;28;19924;-56
2024/01/04 05:31:55;;;;;;;;;;;19.40;46.60;;;;;;5075502;28;19927;-56
2024/01/04 05:34:23;;;;;;;;;;;19.40;46.60;;;;;;5093869;28;19924;-52
2024/01/04 05:36:50;;;;;;;;;;;19.40;46.60;;;;;;5075235;28;19928;-55
2024/01/04 05:39:17;;;;;;;;;;;19.40;46.60;;;;;;5075555;28;19920;-55
2024/01/04 05:41:45;;;;;;;;;;;19.40;46.60;;;;;;5089730;28;20015;-54
2024/01/04 05:44:15;;;;;;;;;;;19.40;46.60;;;;;;5093372;28;19920;-52
2024/01/04 05:46:43;;;;;;;;;;;19.40;46.60;;;;;;5090776;28;19983;-55
2024/01/04 05:49:11;;;;;;;;;;;19.40;46.60;;;;;;5093119;28;19919;-49
2024/01/04 05:51:39;;;;;;;;;;;19.40;46.60;;;;;;5091490;28;19966;-54
2024/01/04 05:54:06;;;;;;;;;;;19.40;46.60;;;;;;5074009;28;19920;-53
2024/01/04 05:56:33;;;;;;;;;;;19.30;46.50;;;;;;5058600;28;19920;-55
2024/01/04 05:59:00;;;;;;;;;;;19.40;46.50;;;;;;5055162;28;20450;-54
2024/01/04 06:01:27;;;;;;;;;;;19.40;46.50;;;;;;5091312;28;20015;-49
2024/01/04 06:03:55;;;;;;;;;;;19.40;46.50;;;;;;5092113;28;19959;-49
2024/01/04 06:06:21;;;;;;;;;;;19.40;46.50;;;;;;5074297;28;19965;-51
2024/01/04 06:08:52;;;;;;;;;;;19.40;46.40;;;;;;5089715;28;19919;-50
2024/01/04 06:11:20;;;;;;;;;;;19.40;46.40;;;;;;5073195;28;19948;-54
2024/01/04 06:13:49;;;;;;;;;;;19.40;46.40;;;;;;5092799;28;19926;-51
2024/01/04 06:16:15;;;;;;;;;;;19.40;46.40;;;;;;5092399;28;19931;-56
2024/01/04 06:18:44;;;;;;;;;;;19.40;46.30;;;;;;5088790;28;20117;-54
2024/01/04 06:21:12;;;;;;;;;;;19.30;46.30;;;;;;5072036;28;19943;-55
2024/01/04 06:23:39;;;;;;;;;;;19.40;46.40;;;;;;5073842;28;19976;-53
2024/01/04 06:26:08;;;;;;;;;;;19.30;46.20;;;;;;5091130;28;19990;-52
2024/01/04 06:28:36;;;;;;;;;;;19.30;46.60;;;;;;5074234;28;19920;-53
2024/01/04 06:31:04;;;;;;;;;;;19.30;46.20;;;;;;5091712;28;19920;-54
2024/01/04 06:33:31;;;;;;;;;;;19.40;46.30;;;;;;5056846;28;19996;-55
2024/01/04 06:35:57;;;;;;;;;;;19.40;46.30;;;;;;5073349;28;19927;-51
2024/01/04 06:38:27;;;;;;;;;;;19.40;46.30;;;;;;5071475;28;19942;-55
2024/01/04 06:40:57;;;;;;;;;;;19.40;46.30;;;;;;5065454;28;19920;-54
2024/01/04 06:43:26;;;;;;;;;;;19.40;46.30;;;;;;5092726;28;20133;-56
2024/01/04 06:45:54;;;;;;;;;;;19.40;46.40;;;;;;5092519;28;19984;-56
2024/01/04 06:48:21;;;;;;;;;;;19.30;46.20;;;;;;5074255;28;19982;-54
2024/01/04 06:50:48;;;;;;;;;;;19.30;46.30;;;;;;5083434;28;19921;-56
2024/01/04 06:53:15;;;;;;;;;;;19.40;46.40;;;;;;5092019;28;19920;-54
2024/01/04 06:55:42;;;;;;;;;;;19.40;46.30;;;;;;5092153;28;19923;-52
2024/01/04 06:58:10;;;;;;;;;;;19.40;46.30;;;;;;5068508;28;19924;-51
2024/01/04 07:00:40;;;;;;;;;;;19.30;46.20;;;;;;5089559;28;19921;-54
2024/01/04 07:03:09;;;;;;;;;;;19.40;46.30;;;;;;5088961;28;19963;-53
2024/01/04 07:05:39;;;;;;;;;;;19.40;46.30;;;;;;5087401;28;19927;-57
2024/01/04 07:08:07;;;;;;;;;;;19.40;46.30;;;;;;5073936;28;19920;-53
2024/01/04 07:10:35;;;;;;;;;;;19.40;46.30;;;;;;5089161;28;20470;-52
2024/01/04 07:13:01;;;;;;;;;;;19.40;46.30;;;;;;5084339;28;19920;-55
2024/01/04 07:15:32;;;;;;;;;;;19.30;46.10;;;;;;5081596;28;19927;-51
2024/01/04 07:18:01;;;;;;;;;;;19.30;46.10;;;;;;5063718;28;20430;-49
2024/01/04 07:20:29;;;;;;;;;;;19.40;46.20;;;;;;5090464;28;19924;-51
2024/01/04 07:22:58;;;;;;;;;;;19.40;46.20;;;;;;5089211;28;19939;-53
2024/01/04 07:25:25;;;;;;;;;;;19.30;46.10;;;;;;5055825;28;19920;-55
2024/01/04 07:27:52;;;;;;;;;;;19.40;46.20;;;;;;5073102;28;19927;-52
2024/01/04 07:30:19;;;;;;;;;;;19.40;46.20;;;;;;5084996;28;19920;-52
2024/01/04 07:32:46;;;;;;;;;;;19.40;46.20;;;;;;5070253;28;19927;-51
2024/01/04 07:35:19;;;;;;;;;;;19.40;46.20;;;;;;5064134;28;20013;-54
2024/01/04 07:37:47;;;;;;;;;;;19.40;46.10;;;;;;5084858;28;19927;-50
2024/01/04 07:40:14;;;;;;;;;;;19.40;46.10;;;;;;5066973;28;19927;-53
2024/01/04 07:42:41;;;;;;;;;;;19.40;46.10;;;;;;5085828;28;19973;-52
2024/01/04 07:45:09;;;;;;;;;;;19.30;46.10;;;;;;5070752;28;19924;-55
2024/01/04 07:47:37;;;;;;;;;;;19.40;46.10;;;;;;5070462;28;19999;-54
2024/01/04 07:50:12;;;;;;;;;;;19.40;46.10;;;;;;5085787;28;20426;-57
2024/01/04 07:52:40;;;;;;;;;;;19.30;46.00;;;;;;5085727;28;19920;-51
2024/01/04 07:55:07;;;;;;;;;;;19.30;46.00;;;;;;5088935;28;19920;-54
2024/01/04 07:57:34;;;;;;;;;;;19.40;46.10;;;;;;5063382;28;19920;-57
2024/01/04 08:00:01;;;;;;;;;;;19.40;46.10;;;;;;5083564;28;19924;-55
2024/01/04 08:02:31;;;;;;;;;;;19.30;45.90;;;;;;5088739;28;19927;-56
2024/01/04 08:04:59;;;;;;;;;;;19.30;45.90;;;;;;5084171;28;19920;-57
2024/01/04 08:07:28;;;;;;;;;;;19.30;46.10;;;;;;5085225;28;19920;-58
2024/01/04 08:09:57;;;;;;;;;;;19.30;45.90;;;;;;5085153;28;20109;-52
2024/01/04 08:12:25;;;;;;;;;;;19.30;45.80;;;;;;5069608;28;20379;-53
2024/01/04 08:14:52;;;;;;;;;;;19.30;45.80;;;;;;5088392;28;19930;-55
2024/01/04 08:17:20;;;;;;;;;;;19.30;45.90;;;;;;5085525;28;19928;-54
2024/01/04 08:19:47;;;;;;;;;;;19.30;45.80;;;;;;5063852;28;19952;-53
2024/01/04 08:22:14;;;;;;;;;;;19.30;45.80;;;;;;5083057;28;20027;-54
2024/01/04 08:24:42;;;;;;;;;;;19.30;45.80;;;;;;5069463;28;19930;-55
2024/01/04 08:27:11;;;;;;;;;;;19.30;45.70;;;;;;5084459;28;19920;-57
2024/01/04 08:29:39;;;;;;;;;;;19.30;45.70;;;;;;5087619;28;19924;-53
2024/01/04 08:32:07;;;;;;;;;;;19.30;45.70;;;;;;5083550;28;20002;-58
2024/01/04 08:34:33;;;;;;;;;;;19.30;45.70;;;;;;5065708;28;19931;-55
2024/01/04 08:37:00;;;;;;;;;;;19.30;45.70;;;;;;5077838;28;19920;-55
2024/01/04 08:39:28;;;;;;;;;;;19.30;45.70;;;;;;5088632;28;19936;-57
2024/01/04 08:41:55;;;;;;;;;;;19.30;45.70;;;;;;5090254;28;20019;-55
2024/01/04 08:44:23;;;;;;;;;;;19.30;45.70;;;;;;5074527;28;19935;-56
2024/01/04 08:46:50;;;;;;;;;;;19.30;45.70;;;;;;5055578;28;20208;-55
2024/01/04 08:49:22;;;;;;;;;;;19.30;45.80;;;;;;5054093;28;20014;-59
2024/01/04 08:51:49;;;;;;;;;;;19.30;45.70;;;;;;5091263;28;19997;-56
2024/01/04 08:54:15;;;;;;;;;;;19.30;45.60;;;;;;5074539;28;19924;-53
2024/01/04 08:56:42;;;;;;;;;;;19.30;45.70;;;;;;5053949;28;19920;-56
2024/01/04 08:59:09;;;;;;;;;;;19.30;45.60;;;;;;5069317;28;19920;-55
2024/01/04 09:01:40;;;;;;;;;;;19.30;45.60;;;;;;5093402;28;19963;-56
2024/01/04 09:04:07;;;;;;;;;;;19.30;45.60;;;;;;5076162;28;19920;-56
2024/01/04 09:06:34;;;;;;;;;;;19.30;45.60;;;;;;5092945;28;19985;-55
2024/01/04 09:09:05;;;;;;;;;;;19.30;45.60;;;;;;5093916;28;19920;-56
2024/01/04 09:11:38;;;;;;;;;;;19.30;45.60;;;;;;5086760;28;20030;-56
2024/01/04 09:14:07;;;;;;;;;;;19.30;45.60;;;;;;5057743;28;19932;-56
2024/01/04 09:16:34;;;;;;;;;;;19.30;45.60;;;;;;5075599;28;19954;-54
2024/01/04 09:19:03;;;;;;;;;;;19.30;45.60;;;;;;5093292;28;19920;-57
2024/01/04 09:21:30;;;;;;;;;;;19.30;45.60;;;;;;5073401;28;19920;-54
2024/01/04 09:23:57;;;;;;;;;;;19.30;45.60;;;;;;5074323;28;20027;-57
2024/01/04 09:26:24;;;;;;;;;;;19.30;45.50;;;;;;5091819;28;19927;-57
2024/01/04 09:28:51;;;;;;;;;;;19.30;45.50;;;;;;5091267;28;19939;-57
2024/01/04 09:31:17;;;;;;;;;;;19.30;45.50;;;;;;5070780;28;19932;-55
2024/01/04 09:33:44;;;;;;;;;;;19.30;45.50;;;;;;5091871;28;20014;-56
2024/01/04 09:36:12;;;;;;;;;;;19.30;45.50;;;;;;5087874;28;19985;-57
2024/01/04 09:38:39;;;;;;;;;;;19.30;45.40;;;;;;5074222;28;19920;-56
2024/01/04 09:41:09;;;;;;;;;;;19.30;45.40;;;;;;5090512;28;19970;-56
2024/01/04 09:43:36;;;;;;;;;;;19.30;45.40;;;;;;5093323;28;19920;-55
2024/01/04 09:46:03;;;;;;;;;;;19.30;45.40;;;;;;5090904;28;19927;-57
2024/01/04 09:48:30;;;;;;;;;;;19.30;45.40;;;;;;5083891;28;19920;-55
2024/01/04 09:50:56;;;;;;;;;;;19.30;45.40;;;;;;5072726;28;19920;-55
2024/01/04 09:53:25;;;;;;;;;;;19.30;45.40;;;;;;5087141;28;19939;-57
2024/01/04 09:55:53;;;;;;;;;;;19.30;45.40;;;;;;5071380;28;19982;-58
2024/01/04 09:58:20;;;;;;;;;;;19.30;45.40;;;;;;5074121;28;19926;-58
2024/01/04 10:00:46;;;;;;;;;;;19.30;45.40;;;;;;5073386;28;19927;-58
2024/01/04 10:03:13;;;;;;;;;;;19.30;45.40;;;;;;5074575;28;19936;-57
2024/01/04 10:05:42;;;;;;;;;;;19.30;45.40;;;;;;5073781;28;19931;-57
2024/01/04 10:08:12;;;;;;;;;;;19.30;45.40;;;;;;5051701;28;19920;-57
2024/01/04 10:10:41;;;;;;;;;;;19.30;45.40;;;;;;5087612;28;20019;-57
2024/01/04 10:13:08;;;;;;;;;;;19.30;45.50;;;;;;5085039;28;19939;-58
2024/01/04 10:15:36;;;;;;;;;;;19.30;45.40;;;;;;5090848;28;19924;-53
2024/01/04 10:18:03;;;;;;;;;;;19.30;45.40;;;;;;5092320;28;20269;-56
2024/01/04 10:20:30;;;;;;;;;;;19.30;45.30;;;;;;5071799;28;19966;-58
2024/01/04 10:22:58;;;;;;;;;;;19.30;45.30;;;;;;5073410;28;20007;-57
2024/01/04 10:25:24;;;;;;;;;;;19.30;45.30;;;;;;5071934;28;20205;-57
2024/01/04 10:27:56;;;;;;;;;;;19.30;45.20;;;;;;5091800;28;19935;-55
2024/01/04 10:30:23;;;;;;;;;;;19.30;45.20;;;;;;5073400;28;19920;-58
2024/01/04 10:32:49;;;;;;;;;;;19.30;45.20;;;;;;5090188;28;19924;-57
2024/01/04 10:35:16;;;;;;;;;;;19.30;45.20;;;;;;5091171;28;19920;-53
2024/01/04 10:37:44;;;;;;;;;;;19.30;45.20;;;;;;5074415;28;20350;-56
2024/01/04 10:40:11;;;;;;;;;;;19.30;45.30;;;;;;5074117;28;20001;-55
2024/01/04 10:42:38;;;;;;;;;;;19.30;45.30;;;;;;5092646;28;19963;-56
2024/01/04 10:45:10;;;;;;;;;;;19.30;45.40;;;;;;5090598;28;20369;-55
2024/01/04 10:47:36;;;;;;;;;;;19.40;45.40;;;;;;5090852;28;19924;-55
2024/01/04 10:50:03;;;;;;;;;;;19.30;45.40;;;;;;5087798;28;19920;-55
2024/01/04 10:52:31;;;;;;;;;;;19.30;45.40;;;;;;5090941;28;20289;-55
2024/01/04 10:54:58;;;;;;;;;;;19.30;45.40;;;;;;5089602;28;19959;-55
2024/01/04 10:57:25;;;;;;;;;;;19.40;45.50;;;;;;5090539;28;19924;-55
2024/01/04 10:59:52;;;;;;;;;;;19.40;45.50;;;;;;5072911;28;19973;-55
2024/01/04 11:02:20;;;;;;;;;;;19.40;45.50;;;;;;5089920;28;19943;-55
2024/01/04 11:04:47;;;;;;;;;;;19.40;45.60;;;;;;5072865;28;19970;-55
2024/01/04 11:07:15;;;;;;;;;;;19.40;45.60;;;;;;5072786;28;19927;-54
2024/01/04 11:09:41;;;;;;;;;;;19.40;45.60;;;;;;5090853;28;19955;-53
2024/01/04 11:12:09;;;;;;;;;;;19.40;45.60;;;;;;5091044;28;20045;-55
2024/01/04 11:14:35;;;;;;;;;;;19.40;45.60;;;;;;5088930;28;19924;-52
2024/01/04 11:17:05;;;;;;;;;;;19.30;45.50;;;;;;5090663;28;19974;-56
2024/01/04 11:19:46;;;;;;;;;;;19.40;45.60;;;;;;5065353;28;19934;-53
2024/01/04 11:22:16;;;;;;;;;;;19.40;45.60;;;;;;5090824;28;19924;-55
2024/01/04 11:24:46;;;;;;;;;;;19.40;45.60;;;;;;5089363;28;20365;-53
2024/01/04 11:27:14;;;;;;;;;;;19.30;45.50;;;;;;5070603;28;19920;-54
2024/01/04 11:29:41;;;;;;;;;;;19.30;45.50;;;;;;5090190;28;20380;-55
2024/01/04 11:32:08;;;;;;;;;;;19.40;45.60;;;;;;5085508;28;19964;-55
2024/01/04 11:34:36;;;;;;;;;;;19.40;45.60;;;;;;5087309;28;20054;-54
2024/01/04 11:37:21;;;;;;;;;;;19.30;45.50;;;;;;5087947;28;19923;-55
2024/01/04 11:39:54;;;;;;;;;;;19.40;45.60;;;;;;5086192;28;19920;-54
2024/01/04 11:42:21;;;;;;;;;;;19.40;45.60;;;;;;5086210;28;19920;-52
2024/01/04 11:44:49;;;;;;;;;;;19.40;45.60;;;;;;5086103;28;19928;-54
2024/01/04 11:47:16;;;;;;;;;;;19.40;45.60;;;;;;5086271;28;19970;-55
2024/01/04 11:49:46;;;;;;;;;;;19.40;45.60;;;;;;5086184;28;19920;-55
2024/01/04 11:52:13;;;;;;;;;;;19.40;45.60;;;;;;5086519;28;19921;-55
2024/01/04 11:54:42;;;;;;;;;;;19.40;45.50;;;;;;5086397;28;19920;-54
2024/01/04 11:57:16;;;;;;;;;;;19.40;45.50;;;;;;5087148;28;19946;-55
2024/01/04 11:59:43;;;;;;;;;;;19.30;45.40;;;;;;5087353;28;19921;-52
2024/01/04 12:02:16;;;;;;;;;;;19.40;45.50;;;;;;5086087;28;19928;-55
2024/01/04 12:04:42;;;;;;;;;;;19.40;45.50;;;;;;5094131;28;19932;-56
2024/01/04 12:07:10;;;;;;;;;;;19.40;45.40;;;;;;5087641;28;19928;-54
2024/01/04 12:09:38;;;;;;;;;;;19.40;45.40;;;;;;5087232;28;19921;-56
2024/01/04 12:12:07;;;;;;;;;;;19.30;45.30;;;;;;5086345;28;19928;-55
2024/01/04 12:14:34;;;;;;;;;;;19.40;45.40;;;;;;5084206;28;20370;-53
2024/01/04 12:17:01;;;;;;;;;;;19.30;45.30;;;;;;5086963;28;19932;-55
2024/01/04 12:19:28;;;;;;;;;;;19.40;45.40;;;;;;5081765;28;20362;-56
2024/01/04 12:21:55;;;;;;;;;;;19.30;45.30;;;;;;5085725;28;19963;-55
2024/01/04 12:24:22;;;;;;;;;;;19.40;45.40;;;;;;5087073;28;20340;-56
2024/01/04 12:26:48;;;;;;;;;;;19.40;45.30;;;;;;5069191;28;19921;-55
2024/01/04 12:29:16;;;;;;;;;;;19.40;45.40;;;;;;5085434;28;20392;-52
2024/01/04 12:31:43;;;;;;;;;;;19.30;45.20;;;;;;5085605;28;19920;-56
2024/01/04 12:34:10;;;;;;;;;;;19.30;45.20;;;;;;5086698;28;19936;-55
2024/01/04 12:36:37;;;;;;;;;;;19.40;45.30;;;;;;5085208;28;19928;-54
2024/01/04 12:39:07;;;;;;;;;;;19.40;45.30;;;;;;5085448;28;20224;-57
2024/01/04 12:41:34;;;;;;;;;;;19.40;45.40;;;;;;5084993;28;19921;-55
2024/01/04 12:44:00;;;;;;;;;;;19.40;45.30;;;;;;5068236;28;19960;-54
2024/01/04 12:46:28;;;;;;;;;;;19.40;45.30;;;;;;5084639;28;19978;-55
2024/01/04 12:49:04;;;;;;;;;;;19.30;45.20;;;;;;5071407;28;19928;-57
2024/01/04 12:51:31;;;;;;;;;;;19.30;45.20;;;;;;5080411;28;19932;-55
2024/01/04 12:53:58;;;;;;;;;;;19.40;45.40;;;;;;5071852;28;20030;-56
2024/01/04 12:56:24;;;;;;;;;;;19.30;45.20;;;;;;5071455;28;19924;-57
2024/01/04 12:58:51;;;;;;;;;;;19.40;45.30;;;;;;5072606;28;19932;-56
2024/01/04 13:01:18;;;;;;;;;;;19.40;45.30;;;;;;5071875;28;19925;-54
2024/01/04 13:03:49;;;;;;;;;;;19.40;45.30;;;;;;5072502;28;20011;-55
2024/01/04 13:06:16;;;;;;;;;;;19.30;45.80;;;;;;5072553;28;19926;-56
2024/01/04 13:08:43;;;;;;;;;;;19.40;45.30;;;;;;5071654;28;19921;-55
2024/01/04 13:11:10;;;;;;;;;;;19.40;45.30;;;;;;5067832;28;19927;-54
2024/01/04 13:13:37;;;;;;;;;;;19.40;45.90;;;;;;5072739;28;20259;-52
2024/01/04 13:16:04;;;;;;;;;;;19.40;45.30;;;;;;5071099;28;20015;-56
2024/01/04 13:18:31;;;;;;;;;;;19.30;45.20;;;;;;5072539;28;19920;-57
2024/01/04 13:20:59;;;;;;;;;;;19.40;45.30;;;;;;5071425;28;19932;-57
2024/01/04 13:23:26;;;;;;;;;;;19.40;45.30;;;;;;5072701;28;20001;-56
2024/01/04 13:25:53;;;;;;;;;;;19.30;45.20;;;;;;5070576;28;19920;-56
2024/01/04 13:28:20;;;;;;;;;;;19.40;45.20;;;;;;5067276;28;19924;-56
2024/01/04 13:30:46;;;;;;;;;;;19.40;45.20;;;;;;5071223;28;20201;-55
2024/01/04 13:33:13;;;;;;;;;;;19.40;45.20;;;;;;5072217;28;19927;-55
2024/01/04 13:35:40;;;;;;;;;;;19.40;45.20;;;;;;5070396;28;19929;-56
2024/01/04 13:38:09;;;;;;;;;;;19.40;45.10;;;;;;5070376;28;19924;-57
2024/01/04 13:40:35;;;;;;;;;;;19.40;45.10;;;;;;5070737;28;19920;-55
2024/01/04 13:43:02;;;;;;;;;;;19.30;45.00;;;;;;5072213;28;19920;-56
2024/01/04 13:45:29;;;;;;;;;;;19.40;45.00;;;;;;5070872;28;20223;-55
2024/01/04 13:47:56;;;;;;;;;;;19.30;44.90;;;;;;5070985;28;19966;-55
2024/01/04 13:50:23;;;;;;;;;;;19.40;45.00;;;;;;5070713;28;19920;-55
2024/01/04 13:52:50;;;;;;;;;;;19.40;44.90;;;;;;5070593;28;19928;-56
2024/01/04 13:55:19;;;;;;;;;;;19.30;45.40;;;;;;5071332;28;19924;-56
2024/01/04 13:57:45;;;;;;;;;;;19.40;44.90;;;;;;5071480;28;19943;-55
2024/01/04 14:00:12;;;;;;;;;;;19.40;44.80;;;;;;5085810;28;19920;-56
2024/01/04 14:02:39;;;;;;;;;;;19.30;44.70;;;;;;5070214;28;19929;-56
2024/01/04 14:05:08;;;;;;;;;;;19.30;44.70;;;;;;5068822;28;20099;-55
2024/01/04 14:07:35;;;;;;;;;;;19.40;44.80;;;;;;5086993;28;19966;-56
2024/01/04 14:10:02;;;;;;;;;;;19.40;44.80;;;;;;5071182;28;19966;-54
2024/01/04 14:12:31;;;;;;;;;;;19.40;44.80;;;;;;5070068;28;19920;-57
2024/01/04 14:14:57;;;;;;;;;;;19.40;44.70;;;;;;5070182;28;19920;-56
2024/01/04 14:17:24;;;;;;;;;;;19.30;44.60;;;;;;5070985;28;19924;-56
2024/01/04 14:19:51;;;;;;;;;;;19.40;44.60;;;;;;5071088;28;19939;-57